sensor_id;sensor_type;location;lat;lon;timestamp;pressure;altitude;pressure_sealevel;temperature;humidity
76404;BME280;65232;48.358;2.122;2022-12-20T00:00:03;100852.63;;;9.70;79.57
76404;BME280;65232;48.358;2.122;2022-12-20T00:00:30;100853.34;;;9.72;79.59
76404;BME280;65232;48.358;2.122;2022-12-20T00:00:55;100846.94;;;9.75;79.34
76404;BME280;65232;48.358;2.122;2022-12-20T00:01:32;100857.97;;;9.70;79.42
76404;BME280;65232;48.358;2.122;2022-12-20T00:01:57;100852.75;;;9.69;79.76
76404;BME280;65232;48.358;2.122;2022-12-20T00:02:23;100849.44;;;9.65;80.05
76404;BME280;65232;48.358;2.122;2022-12-20T00:02:48;100848.75;;;9.63;80.09
76404;BME280;65232;48.358;2.122;2022-12-20T00:03:14;100848.13;;;9.60;80.11
76404;BME280;65232;48.358;2.122;2022-12-20T00:03:40;100846.94;;;9.64;80.28
76404;BME280;65232;48.358;2.122;2022-12-20T00:04:06;100844.97;;;9.66;79.84
76404;BME280;65232;48.358;2.122;2022-12-20T00:04:32;100843.41;;;9.63;79.97
76404;BME280;65232;48.358;2.122;2022-12-20T00:04:57;100841.81;;;9.61;80.12
76404;BME280;65232;48.358;2.122;2022-12-20T00:05:23;100841.81;;;9.61;80.14
76404;BME280;65232;48.358;2.122;2022-12-20T00:05:48;100848.34;;;9.57;80.27
76404;BME280;65232;48.358;2.122;2022-12-20T00:06:14;100849.69;;;9.51;80.30
76404;BME280;65232;48.358;2.122;2022-12-20T00:06:39;100848.59;;;9.53;80.34
76404;BME280;65232;48.358;2.122;2022-12-20T00:07:05;100840.34;;;9.57;80.30
76404;BME280;65232;48.358;2.122;2022-12-20T00:07:31;100839.72;;;9.53;80.25
76404;BME280;65232;48.358;2.122;2022-12-20T00:07:56;100843.38;;;9.52;80.42
76404;BME280;65232;48.358;2.122;2022-12-20T00:08:22;100842.50;;;9.51;80.30
76404;BME280;65232;48.358;2.122;2022-12-20T00:08:55;100842.50;;;9.51;80.54
76404;BME280;65232;48.358;2.122;2022-12-20T00:09:21;100833.53;;;9.52;80.39
76404;BME280;65232;48.358;2.122;2022-12-20T00:09:47;100837.66;;;9.57;80.45
76404;BME280;65232;48.358;2.122;2022-12-20T00:10:12;100837.31;;;9.61;80.10
76404;BME280;65232;48.358;2.122;2022-12-20T00:10:39;100839.38;;;9.58;80.03
76404;BME280;65232;48.358;2.122;2022-12-20T00:11:06;100836.09;;;9.54;80.31
76404;BME280;65232;48.358;2.122;2022-12-20T00:11:32;100832.94;;;9.49;80.17
76404;BME280;65232;48.358;2.122;2022-12-20T00:11:57;100835.47;;;9.50;80.30
76404;BME280;65232;48.358;2.122;2022-12-20T00:12:23;100828.06;;;9.54;80.31
76404;BME280;65232;48.358;2.122;2022-12-20T00:12:48;100833.78;;;9.49;80.07
76404;BME280;65232;48.358;2.122;2022-12-20T00:13:14;100833.91;;;9.48;80.66
76404;BME280;65232;48.358;2.122;2022-12-20T00:13:39;100833.28;;;9.44;80.71
76404;BME280;65232;48.358;2.122;2022-12-20T00:14:06;100838.63;;;9.44;80.69
76404;BME280;65232;48.358;2.122;2022-12-20T00:14:32;100840.69;;;9.41;80.83
76404;BME280;65232;48.358;2.122;2022-12-20T00:14:57;100841.53;;;9.41;80.80
76404;BME280;65232;48.358;2.122;2022-12-20T00:15:23;100836.09;;;9.54;80.39
76404;BME280;65232;48.358;2.122;2022-12-20T00:15:48;100841.66;;;9.51;80.27
76404;BME280;65232;48.358;2.122;2022-12-20T00:16:17;100836.31;;;9.51;80.42
76404;BME280;65232;48.358;2.122;2022-12-20T00:16:43;100841.06;;;9.47;80.54
76404;BME280;65232;48.358;2.122;2022-12-20T00:17:08;100835.00;;;9.45;80.72
76404;BME280;65232;48.358;2.122;2022-12-20T00:17:34;100836.06;;;9.43;80.68
76404;BME280;65232;48.358;2.122;2022-12-20T00:18:00;100837.16;;;9.40;80.67
76404;BME280;65232;48.358;2.122;2022-12-20T00:18:25;100826.72;;;9.37;80.87
76404;BME280;65232;48.358;2.122;2022-12-20T00:18:56;100830.50;;;9.46;80.74
76404;BME280;65232;48.358;2.122;2022-12-20T00:19:22;100830.72;;;9.43;80.48
76404;BME280;65232;48.358;2.122;2022-12-20T00:19:47;100833.41;;;9.43;80.75
76404;BME280;65232;48.358;2.122;2022-12-20T00:20:13;100833.41;;;9.43;80.76
76404;BME280;65232;48.358;2.122;2022-12-20T00:20:39;100832.22;;;9.47;80.60
76404;BME280;65232;48.358;2.122;2022-12-20T00:21:07;100831.13;;;9.49;80.38
76404;BME280;65232;48.358;2.122;2022-12-20T00:21:34;100834.03;;;9.46;80.42
76404;BME280;65232;48.358;2.122;2022-12-20T00:21:59;100836.69;;;9.46;80.54
76404;BME280;65232;48.358;2.122;2022-12-20T00:22:25;100833.53;;;9.41;80.54
76404;BME280;65232;48.358;2.122;2022-12-20T00:22:50;100838.75;;;9.43;80.74
76404;BME280;65232;48.358;2.122;2022-12-20T00:23:16;100835.09;;;9.44;80.68
76404;BME280;65232;48.358;2.122;2022-12-20T00:23:41;100835.22;;;9.42;80.62
76404;BME280;65232;48.358;2.122;2022-12-20T00:24:07;100835.63;;;9.49;80.43
76404;BME280;65232;48.358;2.122;2022-12-20T00:24:32;100833.53;;;9.52;80.57
76404;BME280;65232;48.358;2.122;2022-12-20T00:24:58;100843.63;;;9.49;80.38
76404;BME280;65232;48.358;2.122;2022-12-20T00:25:23;100836.47;;;9.49;80.44
76404;BME280;65232;48.358;2.122;2022-12-20T00:25:49;100839.50;;;9.45;80.53
76404;BME280;65232;48.358;2.122;2022-12-20T00:26:19;100839.59;;;9.43;80.62
76404;BME280;65232;48.358;2.122;2022-12-20T00:26:45;100835.47;;;9.39;80.73
76404;BME280;65232;48.358;2.122;2022-12-20T00:27:11;100831.81;;;9.40;80.80
76404;BME280;65232;48.358;2.122;2022-12-20T00:27:36;100835.84;;;9.35;80.87
76404;BME280;65232;48.358;2.122;2022-12-20T00:28:01;100836.81;;;9.34;81.07
76404;BME280;65232;48.358;2.122;2022-12-20T00:28:28;100836.53;;;9.37;80.99
76404;BME280;65232;48.358;2.122;2022-12-20T00:28:54;100831.81;;;9.40;80.80
76404;BME280;65232;48.358;2.122;2022-12-20T00:29:19;100836.19;;;9.41;80.77
76404;BME280;65232;48.358;2.122;2022-12-20T00:29:45;100837.16;;;9.40;80.96
76404;BME280;65232;48.358;2.122;2022-12-20T00:30:11;100836.94;;;9.43;80.84
76404;BME280;65232;48.358;2.122;2022-12-20T00:30:37;100839.72;;;9.42;80.68
76404;BME280;65232;48.358;2.122;2022-12-20T00:31:04;100842.72;;;9.37;80.71
76404;BME280;65232;48.358;2.122;2022-12-20T00:31:32;100841.28;;;9.33;80.95
76404;BME280;65232;48.358;2.122;2022-12-20T00:31:58;100838.63;;;9.33;81.21
76404;BME280;65232;48.358;2.122;2022-12-20T00:32:23;100840.66;;;9.30;81.13
76404;BME280;65232;48.358;2.122;2022-12-20T00:32:48;100840.78;;;9.28;81.25
76404;BME280;65232;48.358;2.122;2022-12-20T00:33:14;100841.00;;;9.25;81.30
76404;BME280;65232;48.358;2.122;2022-12-20T00:33:40;100840.91;;;9.27;81.32
76404;BME280;65232;48.358;2.122;2022-12-20T00:34:08;100831.91;;;9.28;81.24
76404;BME280;65232;48.358;2.122;2022-12-20T00:34:36;100834.34;;;9.31;80.98
76404;BME280;65232;48.358;2.122;2022-12-20T00:35:01;100831.31;;;9.35;80.92
76404;BME280;65232;48.358;2.122;2022-12-20T00:35:27;100830.59;;;9.33;80.85
76404;BME280;65232;48.358;2.122;2022-12-20T00:35:56;100829.75;;;9.33;80.99
76404;BME280;65232;48.358;2.122;2022-12-20T00:36:23;100826.22;;;9.32;81.20
76404;BME280;65232;48.358;2.122;2022-12-20T00:36:50;100833.63;;;9.29;81.14
76404;BME280;65232;48.358;2.122;2022-12-20T00:37:16;100830.44;;;9.24;81.22
76404;BME280;65232;48.358;2.122;2022-12-20T00:37:41;100836.88;;;9.21;81.24
76404;BME280;65232;48.358;2.122;2022-12-20T00:38:07;100832.63;;;9.18;81.41
76404;BME280;65232;48.358;2.122;2022-12-20T00:38:33;100838.81;;;9.19;81.59
76404;BME280;65232;48.358;2.122;2022-12-20T00:39:00;100836.53;;;9.26;81.61
76404;BME280;65232;48.358;2.122;2022-12-20T00:39:25;100833.50;;;9.30;81.33
76404;BME280;65232;48.358;2.122;2022-12-20T00:39:51;100835.44;;;9.28;81.23
76404;BME280;65232;48.358;2.122;2022-12-20T00:40:17;100830.94;;;9.29;81.14
76404;BME280;65232;48.358;2.122;2022-12-20T00:40:42;100825.00;;;9.25;81.13
76404;BME280;65232;48.358;2.122;2022-12-20T00:41:14;100822.53;;;9.22;81.14
76404;BME280;65232;48.358;2.122;2022-12-20T00:41:40;100821.81;;;9.20;81.35
76404;BME280;65232;48.358;2.122;2022-12-20T00:42:06;100826.19;;;9.21;81.33
76404;BME280;65232;48.358;2.122;2022-12-20T00:42:31;100821.22;;;9.16;81.45
76404;BME280;65232;48.358;2.122;2022-12-20T00:42:57;100822.19;;;9.15;81.47
76404;BME280;65232;48.358;2.122;2022-12-20T00:43:23;100812.47;;;9.14;81.37
76404;BME280;65232;48.358;2.122;2022-12-20T00:43:48;100817.69;;;9.16;81.33
76404;BME280;65232;48.358;2.122;2022-12-20T00:44:14;100818.78;;;9.13;81.50
76404;BME280;65232;48.358;2.122;2022-12-20T00:44:39;100825.09;;;9.12;81.43
76404;BME280;65232;48.358;2.122;2022-12-20T00:45:05;100823.16;;;9.14;81.54
76404;BME280;65232;48.358;2.122;2022-12-20T00:45:30;100818.78;;;9.13;81.64
76404;BME280;65232;48.358;2.122;2022-12-20T00:45:56;100818.88;;;9.12;82.01
76404;BME280;65232;48.358;2.122;2022-12-20T00:46:23;100825.31;;;9.09;81.69
76404;BME280;65232;48.358;2.122;2022-12-20T00:46:50;100821.16;;;9.05;81.54
76404;BME280;65232;48.358;2.122;2022-12-20T00:47:16;100817.16;;;9.00;81.96
76404;BME280;65232;48.358;2.122;2022-12-20T00:47:42;100821.88;;;8.96;81.89
76404;BME280;65232;48.358;2.122;2022-12-20T00:48:07;100821.25;;;8.93;82.29
76404;BME280;65232;48.358;2.122;2022-12-20T00:48:33;100820.16;;;8.95;82.41
76404;BME280;65232;48.358;2.122;2022-12-20T00:48:59;100818.47;;;8.94;82.31
76404;BME280;65232;48.358;2.122;2022-12-20T00:49:25;100820.16;;;8.95;82.34
76404;BME280;65232;48.358;2.122;2022-12-20T00:49:50;100813.75;;;8.98;82.33
76404;BME280;65232;48.358;2.122;2022-12-20T00:50:16;100821.03;;;8.96;82.39
76404;BME280;65232;48.358;2.122;2022-12-20T00:50:41;100820.78;;;8.99;82.49
76404;BME280;65232;48.358;2.122;2022-12-20T00:51:12;100827.84;;;9.00;82.30
76404;BME280;65232;48.358;2.122;2022-12-20T00:51:38;100824.69;;;9.06;82.05
76404;BME280;65232;48.358;2.122;2022-12-20T00:52:04;100821.41;;;9.02;82.01
76404;BME280;65232;48.358;2.122;2022-12-20T00:52:29;100827.25;;;9.07;81.92
76404;BME280;65232;48.358;2.122;2022-12-20T00:52:55;100821.41;;;9.02;81.88
76404;BME280;65232;48.358;2.122;2022-12-20T00:53:20;100819.59;;;9.03;82.17
76404;BME280;65232;48.358;2.122;2022-12-20T00:53:46;100817.06;;;9.01;82.15
76404;BME280;65232;48.358;2.122;2022-12-20T00:54:11;100817.28;;;8.98;81.82
76404;BME280;65232;48.358;2.122;2022-12-20T00:54:37;100821.66;;;8.99;82.08
76404;BME280;65232;48.358;2.122;2022-12-20T00:55:02;100824.31;;;8.99;81.94
76404;BME280;65232;48.358;2.122;2022-12-20T00:55:28;100821.41;;;9.02;81.96
76404;BME280;65232;48.358;2.122;2022-12-20T00:55:54;100823.34;;;9.00;82.03
76404;BME280;65232;48.358;2.122;2022-12-20T00:56:20;100820.56;;;9.02;81.96
76404;BME280;65232;48.358;2.122;2022-12-20T00:56:47;100820.56;;;9.02;81.96
76404;BME280;65232;48.358;2.122;2022-12-20T00:57:12;100818.97;;;8.99;81.80
76404;BME280;65232;48.358;2.122;2022-12-20T00:57:37;100813.88;;;8.96;81.94
76404;BME280;65232;48.358;2.122;2022-12-20T00:58:03;100824.44;;;8.98;81.89
76404;BME280;65232;48.358;2.122;2022-12-20T00:58:29;100821.66;;;8.99;82.10
76404;BME280;65232;48.358;2.122;2022-12-20T00:58:57;100816.41;;;8.98;82.02
76404;BME280;65232;48.358;2.122;2022-12-20T00:59:23;100815.47;;;8.99;82.37
76404;BME280;65232;48.358;2.122;2022-12-20T00:59:49;100817.69;;;9.05;82.08
76404;BME280;65232;48.358;2.122;2022-12-20T01:00:15;100820.94;;;9.08;81.86
76404;BME280;65232;48.358;2.122;2022-12-20T01:00:40;100825.19;;;9.11;81.71
76404;BME280;65232;48.358;2.122;2022-12-20T01:01:20;100820.09;;;9.08;81.87
76404;BME280;65232;48.358;2.122;2022-12-20T01:01:47;100823.59;;;9.08;82.03
76404;BME280;65232;48.358;2.122;2022-12-20T01:02:12;100823.59;;;9.08;81.52
76404;BME280;65232;48.358;2.122;2022-12-20T01:02:38;100826.19;;;9.21;81.30
76404;BME280;65232;48.358;2.122;2022-12-20T01:03:05;100824.13;;;9.25;81.04
76404;BME280;65232;48.358;2.122;2022-12-20T01:03:31;100820.09;;;9.08;81.31
76404;BME280;65232;48.358;2.122;2022-12-20T01:03:57;100823.47;;;8.99;81.61
76404;BME280;65232;48.358;2.122;2022-12-20T01:04:22;100816.09;;;9.02;81.84
76404;BME280;65232;48.358;2.122;2022-12-20T01:04:48;100812.78;;;8.99;81.81
76404;BME280;65232;48.358;2.122;2022-12-20T01:05:14;100809.50;;;8.95;82.12
76404;BME280;65232;48.358;2.122;2022-12-20T01:05:55;100813.63;;;8.88;82.45
76404;BME280;65232;48.358;2.122;2022-12-20T01:06:23;100813.94;;;8.83;82.47
76404;BME280;65232;48.358;2.122;2022-12-20T01:06:49;100804.47;;;8.79;82.83
76404;BME280;65232;48.358;2.122;2022-12-20T01:07:14;100816.84;;;8.80;82.86
76404;BME280;65232;48.358;2.122;2022-12-20T01:07:40;100812.97;;;8.84;82.65
76404;BME280;65232;48.358;2.122;2022-12-20T01:08:05;100812.03;;;8.86;82.76
76404;BME280;65232;48.358;2.122;2022-12-20T01:08:31;100816.50;;;8.85;82.79
76404;BME280;65232;48.358;2.122;2022-12-20T01:08:57;100818.31;;;8.84;82.58
76404;BME280;65232;48.358;2.122;2022-12-20T01:09:23;100815.75;;;8.83;82.62
76404;BME280;65232;48.358;2.122;2022-12-20T01:09:48;100813.22;;;8.81;82.45
76404;BME280;65232;48.358;2.122;2022-12-20T01:10:13;100811.50;;;8.80;82.69
76404;BME280;65232;48.358;2.122;2022-12-20T01:10:39;100822.28;;;8.79;82.90
76404;BME280;65232;48.358;2.122;2022-12-20T01:11:37;100822.28;;;8.79;82.83
76404;BME280;65232;48.358;2.122;2022-12-20T01:12:03;100821.56;;;8.77;83.15
76404;BME280;65232;48.358;2.122;2022-12-20T01:12:28;100820.47;;;8.79;83.04
76404;BME280;65232;48.358;2.122;2022-12-20T01:12:54;100818.53;;;8.81;83.06
76404;BME280;65232;48.358;2.122;2022-12-20T01:13:19;100815.91;;;8.93;82.81
76404;BME280;65232;48.358;2.122;2022-12-20T01:13:47;100821.13;;;8.94;82.75
76404;BME280;65232;48.358;2.122;2022-12-20T01:14:15;100819.09;;;8.98;82.59
76404;BME280;65232;48.358;2.122;2022-12-20T01:14:41;100811.19;;;8.96;82.32
76404;BME280;65232;48.358;2.122;2022-12-20T01:15:07;100814.09;;;8.93;82.50
76404;BME280;65232;48.358;2.122;2022-12-20T01:15:32;100817.84;;;8.91;82.50
76404;BME280;65232;48.358;2.122;2022-12-20T01:16:06;100817.03;;;8.90;82.67
76404;BME280;65232;48.358;2.122;2022-12-20T01:16:38;100818.84;;;8.90;82.67
76404;BME280;65232;48.358;2.122;2022-12-20T01:17:04;100809.84;;;8.91;82.78
76404;BME280;65232;48.358;2.122;2022-12-20T01:17:29;100814.34;;;8.90;82.45
76404;BME280;65232;48.358;2.122;2022-12-20T01:17:55;100815.16;;;8.91;82.28
76404;BME280;65232;48.358;2.122;2022-12-20T01:18:22;100808.28;;;8.88;82.16
76404;BME280;65232;48.358;2.122;2022-12-20T01:18:50;100804.00;;;8.86;82.21
76404;BME280;65232;48.358;2.122;2022-12-20T01:19:17;100803.16;;;8.85;82.30
76404;BME280;65232;48.358;2.122;2022-12-20T01:19:42;100809.91;;;8.78;82.70
76404;BME280;65232;48.358;2.122;2022-12-20T01:20:08;100806.88;;;8.71;83.18
76404;BME280;65232;48.358;2.122;2022-12-20T01:20:34;100806.25;;;8.68;83.40
76404;BME280;65232;48.358;2.122;2022-12-20T01:21:04;100811.81;;;8.65;83.36
76404;BME280;65232;48.358;2.122;2022-12-20T01:21:31;100809.34;;;8.62;83.44
76404;BME280;65232;48.358;2.122;2022-12-20T01:21:56;100807.94;;;8.69;83.60
76404;BME280;65232;48.358;2.122;2022-12-20T01:22:22;100815.94;;;8.69;83.58
76404;BME280;65232;48.358;2.122;2022-12-20T01:22:47;100809.53;;;8.71;83.34
76404;BME280;65232;48.358;2.122;2022-12-20T01:23:13;100811.97;;;8.74;83.46
76404;BME280;65232;48.358;2.122;2022-12-20T01:23:39;100807.50;;;8.75;83.16
76404;BME280;65232;48.358;2.122;2022-12-20T01:24:05;100809.06;;;8.77;83.11
76404;BME280;65232;48.358;2.122;2022-12-20T01:24:30;100809.06;;;8.77;82.95
76404;BME280;65232;48.358;2.122;2022-12-20T01:24:56;100810.22;;;8.86;82.76
76404;BME280;65232;48.358;2.122;2022-12-20T01:25:21;100808.63;;;8.83;82.54
76404;BME280;65232;48.358;2.122;2022-12-20T01:25:49;100804.34;;;8.81;82.57
76404;BME280;65232;48.358;2.122;2022-12-20T01:26:18;100813.44;;;8.78;82.68
76404;BME280;65232;48.358;2.122;2022-12-20T01:26:44;100807.97;;;8.80;82.79
76404;BME280;65232;48.358;2.122;2022-12-20T01:27:11;100809.00;;;8.90;82.39
76404;BME280;65232;48.358;2.122;2022-12-20T01:27:37;100807.56;;;8.97;82.18
76404;BME280;65232;48.358;2.122;2022-12-20T01:28:02;100813.41;;;9.02;81.93
76404;BME280;65232;48.358;2.122;2022-12-20T01:28:28;100809.28;;;9.09;81.66
76404;BME280;65232;48.358;2.122;2022-12-20T01:28:56;100816.34;;;9.10;81.57
76404;BME280;65232;48.358;2.122;2022-12-20T01:29:22;100815.59;;;9.08;81.52
76404;BME280;65232;48.358;2.122;2022-12-20T01:29:48;100811.34;;;9.06;81.43
76404;BME280;65232;48.358;2.122;2022-12-20T01:30:13;100813.66;;;9.10;81.25
76404;BME280;65232;48.358;2.122;2022-12-20T01:30:40;100815.03;;;9.16;81.19
76404;BME280;65232;48.358;2.122;2022-12-20T01:31:07;100807.13;;;9.14;81.13
76404;BME280;65232;48.358;2.122;2022-12-20T01:31:33;100801.78;;;9.14;80.92
76404;BME280;65232;48.358;2.122;2022-12-20T01:31:59;100796.06;;;9.08;81.13
76404;BME280;65232;48.358;2.122;2022-12-20T01:32:24;100812.56;;;9.02;81.30
76404;BME280;65232;48.358;2.122;2022-12-20T01:32:50;100804.56;;;9.02;81.47
76404;BME280;65232;48.358;2.122;2022-12-20T01:33:15;100808.41;;;8.98;81.69
76404;BME280;65232;48.358;2.122;2022-12-20T01:33:42;100806.25;;;9.03;81.45
76404;BME280;65232;48.358;2.122;2022-12-20T01:34:08;100805.41;;;9.02;81.49
76404;BME280;65232;48.358;2.122;2022-12-20T01:34:33;100799.22;;;9.02;81.58
76404;BME280;65232;48.358;2.122;2022-12-20T01:34:59;100795.91;;;8.98;81.49
76404;BME280;65232;48.358;2.122;2022-12-20T01:35:24;100804.78;;;8.99;81.58
76404;BME280;65232;48.358;2.122;2022-12-20T01:36:00;100800.28;;;8.99;81.51
76404;BME280;65232;48.358;2.122;2022-12-20T01:36:29;100803.94;;;8.98;81.67
76404;BME280;65232;48.358;2.122;2022-12-20T01:36:55;100805.97;;;8.95;81.67
76404;BME280;65232;48.358;2.122;2022-12-20T01:37:20;100801.00;;;8.90;81.69
76404;BME280;65232;48.358;2.122;2022-12-20T01:37:46;100804.88;;;8.86;81.92
76404;BME280;65232;48.358;2.122;2022-12-20T01:38:11;100805.72;;;8.87;82.04
76404;BME280;65232;48.358;2.122;2022-12-20T01:38:37;100805.59;;;8.88;81.90
76404;BME280;65232;48.358;2.122;2022-12-20T01:39:10;100811.78;;;8.89;81.93
76404;BME280;65232;48.358;2.122;2022-12-20T01:39:35;100805.94;;;8.83;81.79
76404;BME280;65232;48.358;2.122;2022-12-20T01:40:01;100801.56;;;8.82;82.23
76404;BME280;65232;48.358;2.122;2022-12-20T01:40:26;100804.13;;;8.84;82.07
76404;BME280;65232;48.358;2.122;2022-12-20T01:40:53;100800.72;;;8.82;82.11
76404;BME280;65232;48.358;2.122;2022-12-20T01:41:20;100808.84;;;8.80;82.07
76404;BME280;65232;48.358;2.122;2022-12-20T01:41:47;100800.09;;;8.78;82.12
76404;BME280;65232;48.358;2.122;2022-12-20T01:42:13;100795.38;;;8.82;82.23
76404;BME280;65232;48.358;2.122;2022-12-20T01:42:39;100802.66;;;8.80;82.28
76404;BME280;65232;48.358;2.122;2022-12-20T01:43:04;100801.16;;;8.76;81.78
76404;BME280;65232;48.358;2.122;2022-12-20T01:43:51;100808.81;;;8.69;82.00
76404;BME280;65232;48.358;2.122;2022-12-20T01:45:20;100800.75;;;8.93;81.57
76404;BME280;65232;48.358;2.122;2022-12-20T01:45:47;100790.94;;;8.94;81.61
76404;BME280;65232;48.358;2.122;2022-12-20T01:46:13;100794.66;;;8.91;81.64
76404;BME280;65232;48.358;2.122;2022-12-20T01:46:38;100794.44;;;8.94;81.70
76404;BME280;65232;48.358;2.122;2022-12-20T01:47:04;100795.66;;;8.90;81.75
76404;BME280;65232;48.358;2.122;2022-12-20T01:47:32;100785.69;;;8.92;81.56
76404;BME280;65232;48.358;2.122;2022-12-20T01:47:59;100787.38;;;8.82;81.50
76404;BME280;65232;48.358;2.122;2022-12-20T01:48:25;100793.69;;;8.81;81.42
76404;BME280;65232;48.358;2.122;2022-12-20T01:49:01;100791.13;;;8.79;82.06
76404;BME280;65232;48.358;2.122;2022-12-20T01:49:33;100792.94;;;8.79;82.20
76404;BME280;65232;48.358;2.122;2022-12-20T01:50:02;100794.66;;;8.80;82.18
76404;BME280;65232;48.358;2.122;2022-12-20T01:50:28;100794.31;;;8.84;82.01
76404;BME280;65232;48.358;2.122;2022-12-20T01:50:54;100790.78;;;8.84;81.92
76404;BME280;65232;48.358;2.122;2022-12-20T01:51:20;100786.53;;;8.81;81.69
76404;BME280;65232;48.358;2.122;2022-12-20T01:52:00;100792.09;;;8.78;82.25
76404;BME280;65232;48.358;2.122;2022-12-20T01:52:34;100786.38;;;8.72;82.36
76404;BME280;65232;48.358;2.122;2022-12-20T01:53:02;100795.34;;;8.71;82.13
76404;BME280;65232;48.358;2.122;2022-12-20T01:53:30;100790.25;;;8.68;82.04
76404;BME280;65232;48.358;2.122;2022-12-20T01:54:01;100792.06;;;8.67;82.37
76404;BME280;65232;48.358;2.122;2022-12-20T01:55:29;100800.84;;;8.80;82.08
76404;BME280;65232;48.358;2.122;2022-12-20T01:55:55;100799.13;;;8.79;82.07
76404;BME280;65232;48.358;2.122;2022-12-20T01:56:21;100791.88;;;8.81;81.83
76404;BME280;65232;48.358;2.122;2022-12-20T01:56:51;100802.66;;;8.80;81.84
76404;BME280;65232;48.358;2.122;2022-12-20T01:57:35;100802.56;;;8.93;81.96
76404;BME280;65232;48.358;2.122;2022-12-20T01:58:05;100802.44;;;8.94;81.66
76404;BME280;65232;48.358;2.122;2022-12-20T01:58:32;100800.88;;;8.92;81.79
76404;BME280;65232;48.358;2.122;2022-12-20T01:58:59;100801.00;;;8.90;81.87
76404;BME280;65232;48.358;2.122;2022-12-20T01:59:26;100800.28;;;8.88;81.81
76404;BME280;65232;48.358;2.122;2022-12-20T01:59:53;100802.13;;;8.99;81.57
76404;BME280;65232;48.358;2.122;2022-12-20T02:00:20;100808.31;;;9.10;81.17
76404;BME280;65232;48.358;2.122;2022-12-20T02:00:46;100804.91;;;9.08;80.96
76404;BME280;65232;48.358;2.122;2022-12-20T02:01:12;100802.75;;;9.02;80.93
76404;BME280;65232;48.358;2.122;2022-12-20T02:01:37;100798.25;;;9.03;81.08
76404;BME280;65232;48.358;2.122;2022-12-20T02:02:06;100794.34;;;9.07;81.02
76404;BME280;65232;48.358;2.122;2022-12-20T02:02:34;100791.94;;;9.04;81.04
76404;BME280;65232;48.358;2.122;2022-12-20T02:03:03;100797.63;;;8.99;81.20
76404;BME280;65232;48.358;2.122;2022-12-20T02:03:30;100788.88;;;8.97;81.14
76404;BME280;65232;48.358;2.122;2022-12-20T02:03:56;100794.34;;;8.96;81.22
76404;BME280;65232;48.358;2.122;2022-12-20T02:04:22;100795.41;;;8.93;81.57
76404;BME280;65232;48.358;2.122;2022-12-20T02:04:48;100792.16;;;8.90;81.33
76404;BME280;65232;48.358;2.122;2022-12-20T02:05:14;100799.31;;;8.89;81.50
76404;BME280;65232;48.358;2.122;2022-12-20T02:05:44;100798.78;;;8.84;81.65
76404;BME280;65232;48.358;2.122;2022-12-20T02:06:16;100800.94;;;8.79;81.81
76404;BME280;65232;48.358;2.122;2022-12-20T02:06:42;100799.13;;;8.79;81.41
76404;BME280;65232;48.358;2.122;2022-12-20T02:07:10;100799.59;;;8.73;81.84
76404;BME280;65232;48.358;2.122;2022-12-20T02:07:38;100793.31;;;8.74;81.80
76404;BME280;65232;48.358;2.122;2022-12-20T02:08:04;100793.31;;;8.74;81.87
76404;BME280;65232;48.358;2.122;2022-12-20T02:08:30;100794.50;;;8.70;82.01
76404;BME280;65232;48.358;2.122;2022-12-20T02:08:58;100791.19;;;8.67;82.03
76404;BME280;65232;48.358;2.122;2022-12-20T02:09:27;100788.88;;;8.62;82.26
76404;BME280;65232;48.358;2.122;2022-12-20T02:09:55;100795.53;;;8.57;82.51
76404;BME280;65232;48.358;2.122;2022-12-20T02:10:26;100793.94;;;8.54;82.58
76404;BME280;65232;48.358;2.122;2022-12-20T02:12:43;100791.16;;;8.56;82.94
76404;BME280;65232;48.358;2.122;2022-12-20T02:13:18;100792.66;;;8.60;82.88
76404;BME280;65232;48.358;2.122;2022-12-20T02:14:31;100786.78;;;8.55;82.93
76404;BME280;65232;48.358;2.122;2022-12-20T02:15:26;100790.53;;;8.52;83.08
76404;BME280;65232;48.358;2.122;2022-12-20T02:15:56;100784.47;;;8.50;82.79
76404;BME280;65232;48.358;2.122;2022-12-20T02:16:26;100780.66;;;8.41;83.07
76404;BME280;65232;48.358;2.122;2022-12-20T02:17:47;100780.25;;;8.35;83.61
76404;BME280;65232;48.358;2.122;2022-12-20T02:18:43;100786.13;;;8.27;83.89
76404;BME280;65232;48.358;2.122;2022-12-20T02:20:20;100786.78;;;8.31;83.89
76404;BME280;65232;48.358;2.122;2022-12-20T02:21:38;100781.97;;;8.23;84.26
76404;BME280;65232;48.358;2.122;2022-12-20T02:23:31;100778.34;;;8.24;83.89
76404;BME280;65232;48.358;2.122;2022-12-20T02:25:41;100783.25;;;8.30;83.26
76404;BME280;65232;48.358;2.122;2022-12-20T02:27:47;100781.25;;;8.21;83.40
76404;BME280;65232;48.358;2.122;2022-12-20T02:30:16;100776.13;;;8.18;83.84
76404;BME280;65232;48.358;2.122;2022-12-20T02:30:44;100772.28;;;8.22;83.95
76404;BME280;65232;48.358;2.122;2022-12-20T02:31:13;100773.03;;;8.24;84.02
76404;BME280;65232;48.358;2.122;2022-12-20T02:31:46;100772.81;;;8.27;83.84
76404;BME280;65232;48.358;2.122;2022-12-20T02:32:16;100774.63;;;8.27;84.02
76404;BME280;65232;48.358;2.122;2022-12-20T02:33:17;100777.91;;;8.30;83.58
76404;BME280;65232;48.358;2.122;2022-12-20T02:33:46;100777.06;;;8.30;83.50
76404;BME280;65232;48.358;2.122;2022-12-20T02:34:14;100773.56;;;8.29;83.21
76404;BME280;65232;48.358;2.122;2022-12-20T02:34:41;100771.09;;;8.26;83.09
76404;BME280;65232;48.358;2.122;2022-12-20T02:35:08;100768.75;;;8.22;83.45
76404;BME280;65232;48.358;2.122;2022-12-20T02:35:36;100773.13;;;8.23;83.75
76404;BME280;65232;48.358;2.122;2022-12-20T02:36:03;100765.03;;;8.24;83.80
76404;BME280;65232;48.358;2.122;2022-12-20T02:36:29;100771.44;;;8.22;84.03
76404;BME280;65232;48.358;2.122;2022-12-20T02:36:54;100763.53;;;8.20;83.89
76404;BME280;65232;48.358;2.122;2022-12-20T02:37:20;100765.44;;;8.31;83.81
76404;BME280;65232;48.358;2.122;2022-12-20T02:37:48;100769.69;;;8.33;83.87
76404;BME280;65232;48.358;2.122;2022-12-20T02:38:50;100766.72;;;8.38;83.39
76404;BME280;65232;48.358;2.122;2022-12-20T02:39:16;100757.97;;;8.36;83.47